sensor_id;sensor_type;location;lat;lon;timestamp;P1;durP1;ratioP1;P2;durP2;ratioP2
15159;SDS011;7680;48.800;9.680;2023-08-17T00:03:44;6.55;;;4.93;;
15159;SDS011;7680;48.800;9.680;2023-08-17T00:08:48;5.88;;;5.30;;
15159;SDS011;7680;48.800;9.680;2023-08-17T00:13:52;5.38;;;4.97;;
15159;SDS011;7680;48.800;9.680;2023-08-17T00:18:55;6.13;;;5.15;;
15159;SDS011;7680;48.800;9.680;2023-08-17T00:23:59;4.95;;;4.50;;
15159;SDS011;7680;48.800;9.680;2023-08-17T00:29:03;5.22;;;4.82;;
15159;SDS011;7680;48.800;9.680;2023-08-17T00:34:06;4.82;;;4.53;;
15159;SDS011;7680;48.800;9.680;2023-08-17T00:39:11;5.15;;;4.68;;
15159;SDS011;7680;48.800;9.680;2023-08-17T00:44:14;5.82;;;5.28;;
15159;SDS011;7680;48.800;9.680;2023-08-17T00:49:17;5.50;;;5.00;;
15159;SDS011;7680;48.800;9.680;2023-08-17T00:54:23;7.47;;;6.75;;
15159;SDS011;7680;48.800;9.680;2023-08-17T00:59:28;7.43;;;6.72;;
15159;SDS011;7680;48.800;9.680;2023-08-17T01:04:37;7.75;;;6.90;;
15159;SDS011;7680;48.800;9.680;2023-08-17T01:09:41;7.40;;;6.65;;
15159;SDS011;7680;48.800;9.680;2023-08-17T01:14:48;8.20;;;7.10;;
15159;SDS011;7680;48.800;9.680;2023-08-17T01:19:58;6.72;;;6.22;;
15159;SDS011;7680;48.800;9.680;2023-08-17T01:25:06;5.35;;;4.88;;
15159;SDS011;7680;48.800;9.680;2023-08-17T01:30:11;6.78;;;6.10;;
15159;SDS011;7680;48.800;9.680;2023-08-17T01:35:19;6.95;;;6.35;;
15159;SDS011;7680;48.800;9.680;2023-08-17T01:40:35;7.72;;;7.03;;
15159;SDS011;7680;48.800;9.680;2023-08-17T01:45:39;10.43;;;8.00;;
15159;SDS011;7680;48.800;9.680;2023-08-17T01:50:42;9.00;;;7.93;;
15159;SDS011;7680;48.800;9.680;2023-08-17T01:55:46;28.05;;;6.90;;
15159;SDS011;7680;48.800;9.680;2023-08-17T02:00:51;6.25;;;5.68;;
15159;SDS011;7680;48.800;9.680;2023-08-17T02:05:55;8.20;;;6.00;;
15159;SDS011;7680;48.800;9.680;2023-08-17T02:10:59;6.88;;;6.25;;
15159;SDS011;7680;48.800;9.680;2023-08-17T02:16:03;6.53;;;6.03;;
15159;SDS011;7680;48.800;9.680;2023-08-17T02:21:06;10.63;;;5.78;;
15159;SDS011;7680;48.800;9.680;2023-08-17T02:26:11;5.90;;;5.38;;
15159;SDS011;7680;48.800;9.680;2023-08-17T02:31:14;5.78;;;5.35;;
15159;SDS011;7680;48.800;9.680;2023-08-17T02:36:18;6.00;;;5.45;;
15159;SDS011;7680;48.800;9.680;2023-08-17T02:41:22;4.90;;;4.50;;
15159;SDS011;7680;48.800;9.680;2023-08-17T02:46:25;6.93;;;4.95;;
15159;SDS011;7680;48.800;9.680;2023-08-17T02:51:29;11.55;;;4.65;;
15159;SDS011;7680;48.800;9.680;2023-08-17T02:56:33;5.18;;;4.78;;
15159;SDS011;7680;48.800;9.680;2023-08-17T03:01:36;54.65;;;7.57;;
15159;SDS011;7680;48.800;9.680;2023-08-17T03:06:40;18.35;;;5.82;;
15159;SDS011;7680;48.800;9.680;2023-08-17T03:11:44;5.78;;;5.28;;
15159;SDS011;7680;48.800;9.680;2023-08-17T03:16:48;108.32;;;10.00;;
15159;SDS011;7680;48.800;9.680;2023-08-17T03:21:51;41.92;;;7.22;;
15159;SDS011;7680;48.800;9.680;2023-08-17T03:26:55;26.63;;;6.97;;
15159;SDS011;7680;48.800;9.680;2023-08-17T03:31:58;6.57;;;5.97;;
15159;SDS011;7680;48.800;9.680;2023-08-17T03:37:03;6.28;;;5.68;;
15159;SDS011;7680;48.800;9.680;2023-08-17T03:42:08;19.67;;;5.13;;
15159;SDS011;7680;48.800;9.680;2023-08-17T03:47:12;4.60;;;4.20;;
15159;SDS011;7680;48.800;9.680;2023-08-17T03:52:15;5.50;;;3.95;;
15159;SDS011;7680;48.800;9.680;2023-08-17T03:57:20;4.43;;;4.13;;
15159;SDS011;7680;48.800;9.680;2023-08-17T04:02:23;6.35;;;5.00;;
15159;SDS011;7680;48.800;9.680;2023-08-17T04:07:27;5.30;;;4.95;;
15159;SDS011;7680;48.800;9.680;2023-08-17T04:12:32;5.45;;;5.05;;
15159;SDS011;7680;48.800;9.680;2023-08-17T04:17:35;8.70;;;5.40;;
15159;SDS011;7680;48.800;9.680;2023-08-17T04:22:38;7.05;;;5.88;;
15159;SDS011;7680;48.800;9.680;2023-08-17T04:27:42;21.23;;;6.78;;
15159;SDS011;7680;48.800;9.680;2023-08-17T04:32:46;9.95;;;6.30;;
15159;SDS011;7680;48.800;9.680;2023-08-17T04:37:53;5.63;;;5.22;;
15159;SDS011;7680;48.800;9.680;2023-08-17T04:42:58;5.45;;;4.95;;
15159;SDS011;7680;48.800;9.680;2023-08-17T04:48:01;5.40;;;5.00;;
15159;SDS011;7680;48.800;9.680;2023-08-17T04:53:05;5.60;;;4.78;;
15159;SDS011;7680;48.800;9.680;2023-08-17T04:58:09;21.48;;;5.65;;
15159;SDS011;7680;48.800;9.680;2023-08-17T05:03:12;18.65;;;5.68;;
15159;SDS011;7680;48.800;9.680;2023-08-17T05:08:33;37.45;;;6.97;;
15159;SDS011;7680;48.800;9.680;2023-08-17T05:13:37;6.20;;;5.60;;
15159;SDS011;7680;48.800;9.680;2023-08-17T05:18:41;5.00;;;4.65;;
15159;SDS011;7680;48.800;9.680;2023-08-17T05:23:44;5.40;;;4.93;;
15159;SDS011;7680;48.800;9.680;2023-08-17T05:28:49;5.40;;;4.90;;
15159;SDS011;7680;48.800;9.680;2023-08-17T05:33:52;4.40;;;4.10;;
15159;SDS011;7680;48.800;9.680;2023-08-17T05:38:55;4.07;;;3.70;;
15159;SDS011;7680;48.800;9.680;2023-08-17T05:43:59;4.10;;;3.90;;
15159;SDS011;7680;48.800;9.680;2023-08-17T05:49:03;5.53;;;4.45;;
15159;SDS011;7680;48.800;9.680;2023-08-17T05:54:07;4.88;;;4.45;;
15159;SDS011;7680;48.800;9.680;2023-08-17T05:59:11;4.80;;;3.90;;
15159;SDS011;7680;48.800;9.680;2023-08-17T06:04:15;4.78;;;4.30;;
15159;SDS011;7680;48.800;9.680;2023-08-17T06:09:18;5.88;;;4.63;;
15159;SDS011;7680;48.800;9.680;2023-08-17T06:14:23;5.78;;;4.68;;
15159;SDS011;7680;48.800;9.680;2023-08-17T06:19:26;7.88;;;6.32;;
15159;SDS011;7680;48.800;9.680;2023-08-17T06:24:29;7.32;;;6.72;;
15159;SDS011;7680;48.800;9.680;2023-08-17T06:29:34;7.13;;;6.43;;
15159;SDS011;7680;48.800;9.680;2023-08-17T06:34:37;8.13;;;7.32;;
15159;SDS011;7680;48.800;9.680;2023-08-17T06:39:40;8.77;;;7.97;;
15159;SDS011;7680;48.800;9.680;2023-08-17T06:44:45;9.23;;;8.43;;
15159;SDS011;7680;48.800;9.680;2023-08-17T06:49:48;9.20;;;8.40;;
15159;SDS011;7680;48.800;9.680;2023-08-17T06:54:51;8.43;;;7.72;;
15159;SDS011;7680;48.800;9.680;2023-08-17T06:59:56;9.50;;;8.60;;
15159;SDS011;7680;48.800;9.680;2023-08-17T07:05:00;8.82;;;8.05;;
15159;SDS011;7680;48.800;9.680;2023-08-17T07:10:05;9.48;;;8.65;;
15159;SDS011;7680;48.800;9.680;2023-08-17T07:15:10;9.65;;;8.70;;
15159;SDS011;7680;48.800;9.680;2023-08-17T07:20:14;10.15;;;9.23;;
15159;SDS011;7680;48.800;9.680;2023-08-17T07:25:18;8.80;;;8.00;;
15159;SDS011;7680;48.800;9.680;2023-08-17T07:30:22;9.77;;;8.88;;
15159;SDS011;7680;48.800;9.680;2023-08-17T07:35:26;9.00;;;8.30;;
15159;SDS011;7680;48.800;9.680;2023-08-17T07:40:29;8.90;;;8.13;;
15159;SDS011;7680;48.800;9.680;2023-08-17T07:45:33;8.32;;;7.63;;
15159;SDS011;7680;48.800;9.680;2023-08-17T07:50:37;7.07;;;6.57;;
15159;SDS011;7680;48.800;9.680;2023-08-17T07:55:40;7.57;;;6.90;;
15159;SDS011;7680;48.800;9.680;2023-08-17T08:00:46;8.70;;;7.90;;
15159;SDS011;7680;48.800;9.680;2023-08-17T08:05:49;7.80;;;7.10;;
15159;SDS011;7680;48.800;9.680;2023-08-17T08:10:52;7.47;;;6.88;;
15159;SDS011;7680;48.800;9.680;2023-08-17T08:15:57;7.10;;;6.40;;
15159;SDS011;7680;48.800;9.680;2023-08-17T08:21:01;5.90;;;5.50;;
15159;SDS011;7680;48.800;9.680;2023-08-17T08:26:04;5.95;;;5.45;;
15159;SDS011;7680;48.800;9.680;2023-08-17T08:31:08;5.68;;;5.25;;
15159;SDS011;7680;48.800;9.680;2023-08-17T08:36:12;5.70;;;5.30;;
15159;SDS011;7680;48.800;9.680;2023-08-17T08:41:15;5.35;;;4.95;;
15159;SDS011;7680;48.800;9.680;2023-08-17T08:46:19;5.43;;;5.03;;
15159;SDS011;7680;48.800;9.680;2023-08-17T08:51:25;5.55;;;5.13;;
15159;SDS011;7680;48.800;9.680;2023-08-17T08:56:31;5.28;;;4.80;;
15159;SDS011;7680;48.800;9.680;2023-08-17T09:01:36;5.50;;;5.10;;
15159;SDS011;7680;48.800;9.680;2023-08-17T09:06:41;5.03;;;4.63;;
15159;SDS011;7680;48.800;9.680;2023-08-17T09:11:45;4.90;;;4.50;;
15159;SDS011;7680;48.800;9.680;2023-08-17T09:16:49;5.47;;;5.07;;
15159;SDS011;7680;48.800;9.680;2023-08-17T09:21:53;5.22;;;4.75;;
15159;SDS011;7680;48.800;9.680;2023-08-17T09:26:56;5.60;;;5.03;;
15159;SDS011;7680;48.800;9.680;2023-08-17T09:32:05;5.65;;;5.25;;
15159;SDS011;7680;48.800;9.680;2023-08-17T09:37:09;5.75;;;5.25;;
15159;SDS011;7680;48.800;9.680;2023-08-17T09:42:14;5.93;;;5.53;;
15159;SDS011;7680;48.800;9.680;2023-08-17T09:47:21;5.90;;;5.50;;
15159;SDS011;7680;48.800;9.680;2023-08-17T09:52:24;6.05;;;5.45;;
15159;SDS011;7680;48.800;9.680;2023-08-17T09:57:28;6.03;;;5.55;;
15159;SDS011;7680;48.800;9.680;2023-08-17T10:02:32;6.53;;;5.93;;
15159;SDS011;7680;48.800;9.680;2023-08-17T10:07:36;6.50;;;6.00;;
15159;SDS011;7680;48.800;9.680;2023-08-17T10:12:44;6.50;;;6.00;;
15159;SDS011;7680;48.800;9.680;2023-08-17T10:17:55;7.05;;;6.43;;
15159;SDS011;7680;48.800;9.680;2023-08-17T10:23:16;7.00;;;6.40;;
15159;SDS011;7680;48.800;9.680;2023-08-17T10:28:21;6.80;;;6.20;;
15159;SDS011;7680;48.800;9.680;2023-08-17T10:33:27;6.22;;;5.82;;
15159;SDS011;7680;48.800;9.680;2023-08-17T10:38:30;7.03;;;6.43;;
15159;SDS011;7680;48.800;9.680;2023-08-17T10:43:34;6.88;;;6.43;;
15159;SDS011;7680;48.800;9.680;2023-08-17T10:48:38;7.25;;;6.53;;
15159;SDS011;7680;48.800;9.680;2023-08-17T10:53:42;6.38;;;5.97;;
15159;SDS011;7680;48.800;9.680;2023-08-17T10:58:46;7.13;;;6.63;;
15159;SDS011;7680;48.800;9.680;2023-08-17T11:09:22;7.03;;;6.53;;
15159;SDS011;7680;48.800;9.680;2023-08-17T11:14:25;7.13;;;6.63;;
15159;SDS011;7680;48.800;9.680;2023-08-17T11:19:39;7.47;;;6.88;;
15159;SDS011;7680;48.800;9.680;2023-08-17T11:24:44;7.10;;;6.50;;
15159;SDS011;7680;48.800;9.680;2023-08-17T11:29:47;6.65;;;6.25;;
15159;SDS011;7680;48.800;9.680;2023-08-17T11:34:51;7.30;;;6.70;;
15159;SDS011;7680;48.800;9.680;2023-08-17T11:40:01;7.93;;;7.20;;
15159;SDS011;7680;48.800;9.680;2023-08-17T11:45:05;6.65;;;6.25;;
15159;SDS011;7680;48.800;9.680;2023-08-17T11:50:11;7.05;;;6.55;;
15159;SDS011;7680;48.800;9.680;2023-08-17T11:55:23;6.50;;;6.10;;
15159;SDS011;7680;48.800;9.680;2023-08-17T12:00:26;7.35;;;6.47;;
15159;SDS011;7680;48.800;9.680;2023-08-17T12:05:30;6.82;;;6.32;;
15159;SDS011;7680;48.800;9.680;2023-08-17T12:10:36;7.22;;;6.72;;
15159;SDS011;7680;48.800;9.680;2023-08-17T12:15:40;7.68;;;7.00;;
15159;SDS011;7680;48.800;9.680;2023-08-17T12:20:43;7.28;;;6.78;;
15159;SDS011;7680;48.800;9.680;2023-08-17T12:25:53;6.78;;;6.20;;
15159;SDS011;7680;48.800;9.680;2023-08-17T12:30:57;7.00;;;6.35;;
15159;SDS011;7680;48.800;9.680;2023-08-17T12:36:02;7.63;;;7.03;;
15159;SDS011;7680;48.800;9.680;2023-08-17T12:41:09;6.80;;;6.20;;
15159;SDS011;7680;48.800;9.680;2023-08-17T12:46:12;7.63;;;6.93;;
15159;SDS011;7680;48.800;9.680;2023-08-17T12:51:16;7.55;;;6.90;;
15159;SDS011;7680;48.800;9.680;2023-08-17T12:56:20;6.90;;;6.30;;
15159;SDS011;7680;48.800;9.680;2023-08-17T13:01:23;6.97;;;6.38;;
15159;SDS011;7680;48.800;9.680;2023-08-17T13:06:26;7.82;;;7.15;;
15159;SDS011;7680;48.800;9.680;2023-08-17T13:11:50;7.50;;;6.90;;
15159;SDS011;7680;48.800;9.680;2023-08-17T13:16:53;8.18;;;7.38;;
15159;SDS011;7680;48.800;9.680;2023-08-17T13:21:56;7.28;;;6.72;;
15159;SDS011;7680;48.800;9.680;2023-08-17T13:27:01;7.97;;;7.38;;
15159;SDS011;7680;48.800;9.680;2023-08-17T13:32:05;8.45;;;7.72;;
15159;SDS011;7680;48.800;9.680;2023-08-17T13:37:08;9.40;;;8.70;;
15159;SDS011;7680;48.800;9.680;2023-08-17T13:42:12;9.68;;;8.88;;
15159;SDS011;7680;48.800;9.680;2023-08-17T13:47:16;10.88;;;9.27;;
15159;SDS011;7680;48.800;9.680;2023-08-17T13:52:19;9.38;;;8.57;;
15159;SDS011;7680;48.800;9.680;2023-08-17T13:57:23;10.23;;;9.43;;
15159;SDS011;7680;48.800;9.680;2023-08-17T14:02:26;9.30;;;8.60;;
15159;SDS011;7680;48.800;9.680;2023-08-17T14:07:32;9.95;;;9.05;;
15159;SDS011;7680;48.800;9.680;2023-08-17T14:12:36;10.18;;;9.23;;
15159;SDS011;7680;48.800;9.680;2023-08-17T14:17:40;10.23;;;9.35;;
15159;SDS011;7680;48.800;9.680;2023-08-17T14:22:43;10.55;;;9.55;;
15159;SDS011;7680;48.800;9.680;2023-08-17T14:27:47;9.90;;;9.13;;
15159;SDS011;7680;48.800;9.680;2023-08-17T14:32:50;9.60;;;9.00;;
15159;SDS011;7680;48.800;9.680;2023-08-17T14:37:54;10.25;;;9.45;;
15159;SDS011;7680;48.800;9.680;2023-08-17T14:43:00;11.98;;;10.98;;
15159;SDS011;7680;48.800;9.680;2023-08-17T14:48:03;11.68;;;10.60;;
15159;SDS011;7680;48.800;9.680;2023-08-17T14:53:08;11.27;;;10.27;;
15159;SDS011;7680;48.800;9.680;2023-08-17T14:58:13;12.45;;;11.38;;
15159;SDS011;7680;48.800;9.680;2023-08-17T15:03:17;12.50;;;11.50;;
15159;SDS011;7680;48.800;9.680;2023-08-17T15:08:25;10.82;;;9.88;;
15159;SDS011;7680;48.800;9.680;2023-08-17T15:13:29;11.75;;;10.85;;
15159;SDS011;7680;48.800;9.680;2023-08-17T15:18:34;10.40;;;9.50;;
15159;SDS011;7680;48.800;9.680;2023-08-17T15:23:37;11.13;;;10.23;;
15159;SDS011;7680;48.800;9.680;2023-08-17T15:28:41;12.25;;;11.18;;
15159;SDS011;7680;48.800;9.680;2023-08-17T15:33:45;12.52;;;11.43;;
15159;SDS011;7680;48.800;9.680;2023-08-17T15:38:48;12.05;;;11.05;;
15159;SDS011;7680;48.800;9.680;2023-08-17T15:43:52;13.43;;;12.27;;
15159;SDS011;7680;48.800;9.680;2023-08-17T15:48:55;12.10;;;10.98;;
15159;SDS011;7680;48.800;9.680;2023-08-17T15:53:59;12.23;;;11.23;;
15159;SDS011;7680;48.800;9.680;2023-08-17T15:59:03;12.23;;;11.10;;
15159;SDS011;7680;48.800;9.680;2023-08-17T16:04:06;12.02;;;11.07;;
15159;SDS011;7680;48.800;9.680;2023-08-17T16:09:10;11.95;;;11.02;;
15159;SDS011;7680;48.800;9.680;2023-08-17T16:14:14;12.15;;;11.15;;
15159;SDS011;7680;48.800;9.680;2023-08-17T16:19:18;12.32;;;11.43;;
15159;SDS011;7680;48.800;9.680;2023-08-17T16:24:21;12.95;;;11.82;;
15159;SDS011;7680;48.800;9.680;2023-08-17T16:29:29;14.60;;;13.27;;
15159;SDS011;7680;48.800;9.680;2023-08-17T16:34:32;13.15;;;12.05;;
15159;SDS011;7680;48.800;9.680;2023-08-17T16:39:36;12.98;;;11.90;;
15159;SDS011;7680;48.800;9.680;2023-08-17T16:44:40;14.55;;;13.30;;
15159;SDS011;7680;48.800;9.680;2023-08-17T16:49:43;12.48;;;11.57;;
15159;SDS011;7680;48.800;9.680;2023-08-17T16:54:47;13.40;;;12.20;;
15159;SDS011;7680;48.800;9.680;2023-08-17T16:59:51;12.02;;;11.13;;
15159;SDS011;7680;48.800;9.680;2023-08-17T17:04:54;13.00;;;12.00;;
15159;SDS011;7680;48.800;9.680;2023-08-17T17:09:57;12.75;;;11.85;;
15159;SDS011;7680;48.800;9.680;2023-08-17T17:15:02;12.90;;;12.00;;
15159;SDS011;7680;48.800;9.680;2023-08-17T17:20:07;11.90;;;11.00;;
15159;SDS011;7680;48.800;9.680;2023-08-17T17:25:12;13.15;;;12.02;;
15159;SDS011;7680;48.800;9.680;2023-08-17T17:30:16;12.50;;;11.50;;
15159;SDS011;7680;48.800;9.680;2023-08-17T17:35:20;13.13;;;11.98;;
15159;SDS011;7680;48.800;9.680;2023-08-17T17:40:23;12.07;;;11.07;;
15159;SDS011;7680;48.800;9.680;2023-08-17T17:45:28;12.85;;;11.75;;
15159;SDS011;7680;48.800;9.680;2023-08-17T17:50:31;12.68;;;11.68;;
15159;SDS011;7680;48.800;9.680;2023-08-17T17:55:34;12.75;;;11.65;;
15159;SDS011;7680;48.800;9.680;2023-08-17T18:00:38;12.88;;;11.88;;
15159;SDS011;7680;48.800;9.680;2023-08-17T18:05:42;13.45;;;12.35;;
15159;SDS011;7680;48.800;9.680;2023-08-17T18:10:47;13.07;;;12.07;;
15159;SDS011;7680;48.800;9.680;2023-08-17T18:15:51;12.85;;;11.75;;
15159;SDS011;7680;48.800;9.680;2023-08-17T18:20:54;13.05;;;12.05;;
15159;SDS011;7680;48.800;9.680;2023-08-17T18:25:57;12.57;;;11.57;;
15159;SDS011;7680;48.800;9.680;2023-08-17T18:31:02;13.35;;;12.20;;
15159;SDS011;7680;48.800;9.680;2023-08-17T18:36:05;13.65;;;12.55;;
15159;SDS011;7680;48.800;9.680;2023-08-17T18:41:08;14.18;;;12.98;;
15159;SDS011;7680;48.800;9.680;2023-08-17T18:46:13;13.35;;;12.15;;
15159;SDS011;7680;48.800;9.680;2023-08-17T18:51:16;12.32;;;11.32;;
15159;SDS011;7680;48.800;9.680;2023-08-17T18:56:20;14.52;;;13.23;;
15159;SDS011;7680;48.800;9.680;2023-08-17T19:01:24;12.60;;;11.50;;
15159;SDS011;7680;48.800;9.680;2023-08-17T19:06:27;12.63;;;11.60;;
15159;SDS011;7680;48.800;9.680;2023-08-17T19:11:30;11.82;;;10.93;;
15159;SDS011;7680;48.800;9.680;2023-08-17T19:16:35;13.98;;;12.90;;
15159;SDS011;7680;48.800;9.680;2023-08-17T19:21:38;14.07;;;12.98;;
15159;SDS011;7680;48.800;9.680;2023-08-17T19:26:41;13.07;;;12.02;;
15159;SDS011;7680;48.800;9.680;2023-08-17T19:31:46;12.02;;;10.93;;
15159;SDS011;7680;48.800;9.680;2023-08-17T19:36:51;10.18;;;9.27;;
15159;SDS011;7680;48.800;9.680;2023-08-17T19:41:54;9.98;;;9.20;;
15159;SDS011;7680;48.800;9.680;2023-08-17T19:46:58;9.73;;;8.80;;
15159;SDS011;7680;48.800;9.680;2023-08-17T19:52:02;8.32;;;7.63;;
15159;SDS011;7680;48.800;9.680;2023-08-17T19:57:05;7.70;;;7.00;;
15159;SDS011;7680;48.800;9.680;2023-08-17T20:02:09;8.05;;;7.35;;
15159;SDS011;7680;48.800;9.680;2023-08-17T20:07:13;7.30;;;6.68;;
15159;SDS011;7680;48.800;9.680;2023-08-17T20:12:16;5.97;;;5.47;;
15159;SDS011;7680;48.800;9.680;2023-08-17T20:17:20;5.80;;;5.30;;
15159;SDS011;7680;48.800;9.680;2023-08-17T20:22:24;6.38;;;5.75;;
15159;SDS011;7680;48.800;9.680;2023-08-17T20:27:27;5.80;;;5.30;;
15159;SDS011;7680;48.800;9.680;2023-08-17T20:32:32;6.18;;;5.68;;
15159;SDS011;7680;48.800;9.680;2023-08-17T20:37:35;6.13;;;5.63;;
15159;SDS011;7680;48.800;9.680;2023-08-17T20:42:39;7.15;;;6.45;;
15159;SDS011;7680;48.800;9.680;2023-08-17T20:47:44;6.95;;;6.28;;
15159;SDS011;7680;48.800;9.680;2023-08-17T20:52:47;7.20;;;6.53;;
15159;SDS011;7680;48.800;9.680;2023-08-17T20:57:51;7.07;;;6.38;;
15159;SDS011;7680;48.800;9.680;2023-08-17T21:02:55;6.90;;;6.25;;
15159;SDS011;7680;48.800;9.680;2023-08-17T21:07:59;7.03;;;6.40;;
15159;SDS011;7680;48.800;9.680;2023-08-17T21:13:04;7.28;;;6.68;;
15159;SDS011;7680;48.800;9.680;2023-08-17T21:18:08;7.03;;;6.35;;
15159;SDS011;7680;48.800;9.680;2023-08-17T21:23:12;8.63;;;7.68;;
15159;SDS011;7680;48.800;9.680;2023-08-17T21:28:15;8.27;;;7.45;;
15159;SDS011;7680;48.800;9.680;2023-08-17T21:33:19;8.57;;;7.72;;
15159;SDS011;7680;48.800;9.680;2023-08-17T21:38:22;7.80;;;6.80;;
15159;SDS011;7680;48.800;9.680;2023-08-17T21:43:26;8.38;;;7.60;;
15159;SDS011;7680;48.800;9.680;2023-08-17T21:48:30;8.95;;;7.60;;
15159;SDS011;7680;48.800;9.680;2023-08-17T21:53:33;8.18;;;7.38;;
15159;SDS011;7680;48.800;9.680;2023-08-17T21:58:37;8.07;;;6.97;;
15159;SDS011;7680;48.800;9.680;2023-08-17T22:03:41;6.60;;;6.03;;
15159;SDS011;7680;48.800;9.680;2023-08-17T22:08:44;6.25;;;5.65;;
15159;SDS011;7680;48.800;9.680;2023-08-17T22:13:48;6.85;;;6.25;;
15159;SDS011;7680;48.800;9.680;2023-08-17T22:18:52;7.35;;;5.97;;
15159;SDS011;7680;48.800;9.680;2023-08-17T22:23:59;6.13;;;5.60;;
15159;SDS011;7680;48.800;9.680;2023-08-17T22:29:03;6.70;;;6.00;;
15159;SDS011;7680;48.800;9.680;2023-08-17T22:34:07;6.65;;;5.63;;
15159;SDS011;7680;48.800;9.680;2023-08-17T22:39:11;6.05;;;5.55;;
15159;SDS011;7680;48.800;9.680;2023-08-17T22:44:14;5.63;;;5.13;;
15159;SDS011;7680;48.800;9.680;2023-08-17T22:49:19;6.50;;;5.90;;
15159;SDS011;7680;48.800;9.680;2023-08-17T22:54:22;6.07;;;5.47;;
15159;SDS011;7680;48.800;9.680;2023-08-17T22:59:25;5.38;;;4.97;;
15159;SDS011;7680;48.800;9.680;2023-08-17T23:04:29;6.03;;;5.40;;
15159;SDS011;7680;48.800;9.680;2023-08-17T23:09:33;8.55;;;6.13;;
15159;SDS011;7680;48.800;9.680;2023-08-17T23:14:37;6.32;;;5.75;;
15159;SDS011;7680;48.800;9.680;2023-08-17T23:19:41;8.05;;;5.85;;
15159;SDS011;7680;48.800;9.680;2023-08-17T23:24:44;6.35;;;5.82;;
15159;SDS011;7680;48.800;9.680;2023-08-17T23:29:47;6.43;;;5.82;;
15159;SDS011;7680;48.800;9.680;2023-08-17T23:34:52;6.57;;;6.07;;
15159;SDS011;7680;48.800;9.680;2023-08-17T23:39:55;7.30;;;6.00;;
15159;SDS011;7680;48.800;9.680;2023-08-17T23:44:58;6.47;;;5.85;;
15159;SDS011;7680;48.800;9.680;2023-08-17T23:50:03;7.38;;;6.22;;
15159;SDS011;7680;48.800;9.680;2023-08-17T23:55:07;6.03;;;5.53;;
